createdAt,value
2019-05-18T00:00:20.480Z,0.00
2019-05-18T00:01:20.515Z,0.00
2019-05-18T00:02:20.548Z,0.00
2019-05-18T00:03:20.585Z,0.00
2019-05-18T00:04:20.618Z,0.00
2019-05-18T00:05:20.650Z,0.00
2019-05-18T00:06:20.690Z,0.00
2019-05-18T00:07:20.720Z,0.00
2019-05-18T00:08:20.757Z,0.00
2019-05-18T00:09:20.789Z,0.00
2019-05-18T00:10:20.824Z,0.00
2019-05-18T00:11:20.859Z,0.00
2019-05-18T00:12:20.910Z,0.00
2019-05-18T00:13:20.926Z,0.00
2019-05-18T00:14:20.961Z,0.00
2019-05-18T00:15:21.000Z,0.00
2019-05-18T00:16:21.029Z,0.00
2019-05-18T00:17:25.396Z,0.00
2019-05-18T00:18:21.104Z,0.00
2019-05-18T00:19:21.134Z,0.00
2019-05-18T00:20:21.166Z,0.00
2019-05-18T00:21:21.200Z,0.00
2019-05-18T00:22:21.237Z,0.00
2019-05-18T00:23:21.269Z,0.00
2019-05-18T00:24:21.303Z,0.00
2019-05-18T00:25:21.338Z,0.00
2019-05-18T00:26:21.368Z,0.00
2019-05-18T00:27:21.404Z,0.00
2019-05-18T00:28:21.440Z,0.00
2019-05-18T00:29:21.473Z,0.00
2019-05-18T00:30:21.504Z,0.00
2019-05-18T00:31:21.546Z,0.00
2019-05-18T00:32:21.572Z,0.00
2019-05-18T00:33:21.613Z,0.00
2019-05-18T00:34:21.639Z,0.00
2019-05-18T00:35:21.673Z,0.00
2019-05-18T00:36:21.709Z,0.00
2019-05-18T00:37:21.745Z,0.00
2019-05-18T00:38:21.777Z,0.00
2019-05-18T00:39:21.814Z,0.00
2019-05-18T00:40:21.844Z,0.00
2019-05-18T00:41:22.110Z,0.00
2019-05-18T00:42:21.911Z,0.00
2019-05-18T00:43:21.945Z,0.00
2019-05-18T00:44:21.975Z,0.00
2019-05-18T00:45:22.008Z,0.00
2019-05-18T00:46:22.041Z,0.00
2019-05-18T00:47:22.075Z,0.00
2019-05-18T00:48:22.108Z,0.00
2019-05-18T00:49:22.142Z,0.00
2019-05-18T00:50:22.184Z,0.00
2019-05-18T00:51:23.440Z,0.00
2019-05-18T00:52:22.242Z,0.00
2019-05-18T00:53:22.277Z,0.00
2019-05-18T00:54:22.311Z,0.00
2019-05-18T00:55:22.342Z,0.00
2019-05-18T00:56:22.380Z,0.00
2019-05-18T00:57:22.412Z,0.00
2019-05-18T00:58:22.445Z,0.00
2019-05-18T00:59:22.476Z,0.00
2019-05-18T01:00:22.510Z,0.00
2019-05-18T01:01:22.545Z,0.00
2019-05-18T01:02:22.583Z,0.00
2019-05-18T01:03:22.612Z,0.00
2019-05-18T01:04:22.647Z,0.00
2019-05-18T01:05:22.680Z,0.00
2019-05-18T01:06:22.710Z,0.00
2019-05-18T01:07:22.750Z,0.00
2019-05-18T01:08:22.777Z,0.00
2019-05-18T01:09:22.815Z,0.00
2019-05-18T01:10:22.843Z,0.00
2019-05-18T01:11:22.878Z,0.00
2019-05-18T01:12:22.909Z,0.00
2019-05-18T01:13:22.942Z,0.00
2019-05-18T01:14:22.978Z,0.00
2019-05-18T01:15:23.010Z,0.00
2019-05-18T01:16:23.049Z,0.00
2019-05-18T01:17:23.075Z,0.00
2019-05-18T01:18:23.113Z,0.00
2019-05-18T01:19:23.145Z,0.00
2019-05-18T01:20:23.178Z,0.00
2019-05-18T01:21:23.209Z,0.00
2019-05-18T01:22:23.245Z,0.00
2019-05-18T01:23:23.274Z,0.00
2019-05-18T01:24:23.309Z,0.00
2019-05-18T01:25:23.339Z,0.00
2019-05-18T01:26:23.374Z,0.00
2019-05-18T01:27:23.408Z,0.00
2019-05-18T01:28:23.441Z,0.00
2019-05-18T01:29:23.480Z,0.00
2019-05-18T01:30:23.506Z,0.00
2019-05-18T01:31:23.538Z,0.00
2019-05-18T01:32:23.574Z,0.00
2019-05-18T01:33:23.603Z,0.00
2019-05-18T01:34:23.638Z,0.00
2019-05-18T01:35:23.702Z,0.00
2019-05-18T01:36:23.704Z,0.00
2019-05-18T01:37:23.736Z,0.00
2019-05-18T01:38:23.839Z,0.00
2019-05-18T01:39:23.807Z,0.00
2019-05-18T01:40:23.837Z,0.00
2019-05-18T01:41:23.868Z,0.00
2019-05-18T01:42:23.900Z,0.00
2019-05-18T01:43:23.934Z,0.00
2019-05-18T01:44:23.967Z,0.00
2019-05-18T01:45:23.999Z,0.00
2019-05-18T01:46:24.034Z,0.00
2019-05-18T01:47:24.066Z,0.00
2019-05-18T01:48:24.098Z,0.00
2019-05-18T01:49:24.129Z,5.63
2019-05-18T01:50:24.164Z,5.63
2019-05-18T01:51:24.197Z,5.63
2019-05-18T01:52:24.232Z,5.63
2019-05-18T01:53:24.262Z,5.63
2019-05-18T01:54:24.298Z,5.63
2019-05-18T01:55:24.328Z,5.63
2019-05-18T01:56:24.362Z,5.63
2019-05-18T01:57:24.392Z,5.63
2019-05-18T01:58:24.428Z,5.63
2019-05-18T01:59:24.463Z,5.63
2019-05-18T02:00:24.493Z,11.25
2019-05-18T02:01:24.524Z,11.25
2019-05-18T02:02:24.559Z,11.25
2019-05-18T02:03:26.024Z,11.25
2019-05-18T02:04:24.624Z,11.25
2019-05-18T02:05:24.657Z,11.25
2019-05-18T02:06:24.689Z,11.25
2019-05-18T02:07:24.729Z,16.88
2019-05-18T02:08:24.758Z,16.88
2019-05-18T02:09:24.787Z,16.88
2019-05-18T02:10:24.820Z,16.88
2019-05-18T02:11:24.852Z,16.88
2019-05-18T02:12:24.884Z,22.50
2019-05-18T02:13:24.920Z,22.50
2019-05-18T02:14:24.949Z,22.50
2019-05-18T02:15:24.984Z,22.50
2019-05-18T02:16:25.019Z,28.13
2019-05-18T02:17:25.045Z,28.13
2019-05-18T02:18:29.053Z,28.13
2019-05-18T02:19:25.115Z,28.13
2019-05-18T02:20:25.148Z,33.75
2019-05-18T02:21:25.177Z,33.75
2019-05-18T02:22:25.212Z,33.75
2019-05-18T02:23:25.243Z,39.38
2019-05-18T02:24:25.274Z,39.38
2019-05-18T02:25:25.308Z,39.38
2019-05-18T02:26:25.341Z,45.00
2019-05-18T02:27:25.374Z,45.00
2019-05-18T02:28:25.406Z,45.00
2019-05-18T02:29:25.438Z,50.63
2019-05-18T02:30:25.474Z,50.63
2019-05-18T02:31:25.506Z,50.63
2019-05-18T02:32:25.539Z,56.25
2019-05-18T02:33:25.570Z,56.25
2019-05-18T02:34:25.602Z,56.25
2019-05-18T02:35:25.637Z,61.88
2019-05-18T02:36:25.674Z,61.88
2019-05-18T02:37:25.701Z,61.88
2019-05-18T02:38:25.733Z,61.88
2019-05-18T02:39:25.767Z,67.50
2019-05-18T02:40:25.802Z,67.50
2019-05-18T02:41:25.832Z,67.50
2019-05-18T02:42:29.908Z,67.50
2019-05-18T02:43:25.899Z,73.13
2019-05-18T02:44:25.930Z,73.13
2019-05-18T02:45:25.961Z,73.13
2019-05-18T02:46:26.002Z,78.75
2019-05-18T02:47:26.032Z,73.13
2019-05-18T02:48:26.069Z,78.75
2019-05-18T02:49:26.093Z,78.75
2019-05-18T02:50:26.128Z,78.75
2019-05-18T02:51:26.161Z,84.38
2019-05-18T02:52:26.201Z,90.00
2019-05-18T02:53:26.228Z,95.63
2019-05-18T02:54:26.261Z,95.63
2019-05-18T02:55:26.295Z,95.63
2019-05-18T02:56:26.330Z,95.63
2019-05-18T02:57:26.379Z,101.25
2019-05-18T02:58:26.392Z,101.25
2019-05-18T02:59:26.425Z,106.88
2019-05-18T03:00:26.466Z,106.88
2019-05-18T03:01:26.496Z,112.50
2019-05-18T03:02:26.532Z,112.50
2019-05-18T03:03:26.617Z,112.50
2019-05-18T03:04:26.591Z,118.13
2019-05-18T03:05:26.625Z,118.13
2019-05-18T03:06:26.660Z,123.75
2019-05-18T03:07:26.694Z,123.75
2019-05-18T03:08:26.727Z,123.75
2019-05-18T03:09:26.760Z,123.75
2019-05-18T03:10:26.793Z,129.38
2019-05-18T03:11:26.827Z,129.38
2019-05-18T03:12:26.858Z,135.00
2019-05-18T03:13:26.890Z,140.63
2019-05-18T03:14:26.924Z,140.63
2019-05-18T03:15:26.958Z,140.63
2019-05-18T03:16:26.994Z,146.25
2019-05-18T03:17:27.023Z,157.50
2019-05-18T03:18:27.060Z,151.88
2019-05-18T03:19:27.096Z,157.50
2019-05-18T03:20:27.129Z,157.50
2019-05-18T03:21:27.161Z,168.75
2019-05-18T03:22:27.199Z,168.75
2019-05-18T03:23:27.228Z,168.75
2019-05-18T03:24:27.264Z,174.38
2019-05-18T03:25:27.295Z,174.38
2019-05-18T03:26:27.331Z,174.38
2019-05-18T03:27:27.361Z,180.00
2019-05-18T03:28:27.400Z,185.63
2019-05-18T03:29:27.429Z,185.63
2019-05-18T03:30:27.473Z,185.63
2019-05-18T03:31:27.500Z,191.25
2019-05-18T03:32:27.534Z,191.25
2019-05-18T03:33:29.343Z,191.25
2019-05-18T03:34:27.609Z,191.25
2019-05-18T03:35:27.638Z,196.88
2019-05-18T03:36:27.676Z,202.50
2019-05-18T03:37:27.706Z,202.50
2019-05-18T03:38:27.740Z,202.50
2019-05-18T03:39:27.772Z,208.13
2019-05-18T03:40:27.811Z,213.75
2019-05-18T03:41:27.842Z,225.00
2019-05-18T03:42:27.875Z,219.38
2019-05-18T03:43:27.909Z,219.38
2019-05-18T03:44:27.945Z,247.50
2019-05-18T03:45:27.981Z,264.38
2019-05-18T03:46:28.012Z,236.25
2019-05-18T03:47:28.045Z,230.63
2019-05-18T03:48:28.080Z,230.63
2019-05-18T03:49:28.112Z,236.25
2019-05-18T03:50:28.148Z,241.88
2019-05-18T03:51:28.188Z,241.88
2019-05-18T03:52:28.220Z,241.88
2019-05-18T03:53:28.258Z,253.13
2019-05-18T03:54:28.330Z,264.38
2019-05-18T03:55:28.334Z,275.63
2019-05-18T03:56:28.357Z,264.38
2019-05-18T03:57:28.389Z,264.38
2019-05-18T03:58:28.426Z,270.00
2019-05-18T03:59:28.461Z,275.63
2019-05-18T04:00:28.494Z,309.38
2019-05-18T04:01:28.534Z,298.13
2019-05-18T04:02:28.562Z,281.25
2019-05-18T04:03:28.600Z,275.63
2019-05-18T04:04:28.639Z,270.00
2019-05-18T04:05:28.669Z,275.63
2019-05-18T04:06:28.722Z,275.63
2019-05-18T04:07:28.737Z,281.25
2019-05-18T04:08:28.777Z,281.25
2019-05-18T04:09:28.805Z,286.88
2019-05-18T04:10:28.842Z,286.88
2019-05-18T04:11:28.876Z,298.13
2019-05-18T04:12:28.911Z,298.13
2019-05-18T04:13:28.951Z,309.38
2019-05-18T04:14:28.979Z,309.38
2019-05-18T04:15:29.019Z,309.38
2019-05-18T04:16:29.054Z,309.38
2019-05-18T04:17:29.084Z,320.63
2019-05-18T04:18:29.123Z,320.63
2019-05-18T04:19:44.940Z,320.63
2019-05-18T04:20:29.209Z,354.38
2019-05-18T04:21:29.227Z,331.88
2019-05-18T04:22:29.259Z,326.25
2019-05-18T04:23:29.299Z,326.25
2019-05-18T04:24:29.329Z,331.88
2019-05-18T04:25:29.420Z,331.88
2019-05-18T04:26:29.399Z,337.50
2019-05-18T04:27:29.435Z,343.13
2019-05-18T04:28:29.470Z,343.13
2019-05-18T04:29:29.504Z,360.00
2019-05-18T04:30:29.540Z,405.00
2019-05-18T04:31:32.258Z,382.50
2019-05-18T04:32:29.613Z,466.88
2019-05-18T04:33:29.645Z,433.13
2019-05-18T04:34:29.695Z,416.25
2019-05-18T04:35:29.718Z,483.75
2019-05-18T04:36:29.750Z,523.13
2019-05-18T04:37:29.789Z,500.63
2019-05-18T04:38:29.821Z,421.88
2019-05-18T04:39:29.858Z,511.88
2019-05-18T04:40:29.892Z,624.38
2019-05-18T04:41:29.933Z,770.63
2019-05-18T04:42:29.970Z,770.63
2019-05-18T04:43:29.999Z,804.38
2019-05-18T04:44:30.044Z,798.75
2019-05-18T04:45:30.070Z,793.13
2019-05-18T04:46:30.110Z,793.13
2019-05-18T04:47:30.146Z,821.25
2019-05-18T04:48:30.182Z,810.00
2019-05-18T04:49:30.218Z,787.50
2019-05-18T04:50:30.267Z,781.88
2019-05-18T04:51:30.309Z,731.25
2019-05-18T04:52:30.334Z,787.50
2019-05-18T04:53:30.372Z,793.13
2019-05-18T04:54:30.404Z,759.38
2019-05-18T04:55:30.442Z,781.88
2019-05-18T04:56:30.479Z,793.13
2019-05-18T04:57:30.519Z,765.00
2019-05-18T04:58:30.572Z,697.50
2019-05-18T04:59:30.602Z,579.38
2019-05-18T05:00:30.635Z,579.38
2019-05-18T05:01:30.697Z,472.50
2019-05-18T05:02:30.720Z,815.63
2019-05-18T05:03:30.748Z,916.88
2019-05-18T05:04:30.790Z,911.25
2019-05-18T05:05:30.833Z,928.13
2019-05-18T05:06:30.868Z,956.25
2019-05-18T05:07:30.905Z,978.75
2019-05-18T05:08:30.943Z,984.38
2019-05-18T05:09:30.986Z,990.00
2019-05-18T05:10:31.021Z,990.00
2019-05-18T05:11:31.062Z,973.13
2019-05-18T05:12:31.112Z,990.00
2019-05-18T05:13:31.140Z,1001.25
2019-05-18T05:14:31.185Z,1018.13
2019-05-18T05:15:31.220Z,1068.75
2019-05-18T05:16:31.263Z,1102.50
2019-05-18T05:17:31.305Z,1080.00
2019-05-18T05:18:31.344Z,1091.25
2019-05-18T05:19:31.381Z,1091.25
2019-05-18T05:20:31.423Z,1096.88
2019-05-18T05:21:31.465Z,1113.75
2019-05-18T05:22:31.511Z,1102.50
2019-05-18T05:23:31.547Z,1108.13
2019-05-18T05:24:31.585Z,1119.38
2019-05-18T05:25:31.625Z,1158.75
2019-05-18T05:26:31.667Z,1181.25
2019-05-18T05:27:31.708Z,1181.25
2019-05-18T05:28:31.749Z,1136.25
2019-05-18T05:29:31.791Z,1141.88
2019-05-18T05:30:31.831Z,1170.00
2019-05-18T05:31:31.874Z,1175.63
2019-05-18T05:32:31.919Z,1170.00
2019-05-18T05:33:31.959Z,1158.75
2019-05-18T05:34:31.997Z,1141.88
2019-05-18T05:35:32.042Z,1102.50
2019-05-18T05:36:32.081Z,1119.38
2019-05-18T05:37:32.122Z,1164.38
2019-05-18T05:38:32.168Z,1063.13
2019-05-18T05:39:32.208Z,1198.13
2019-05-18T05:40:32.247Z,1215.00
2019-05-18T05:41:32.286Z,1164.38
2019-05-18T05:42:32.339Z,1108.13
2019-05-18T05:43:32.372Z,1175.63
2019-05-18T05:44:32.412Z,1153.13
2019-05-18T05:45:32.455Z,1209.38
2019-05-18T05:46:32.495Z,1153.13
2019-05-18T05:47:32.536Z,1130.63
2019-05-18T05:48:32.581Z,1147.50
2019-05-18T05:49:32.620Z,1147.50
2019-05-18T05:50:35.820Z,1136.25
2019-05-18T05:51:32.704Z,1153.13
2019-05-18T05:52:32.750Z,1153.13
2019-05-18T05:53:32.786Z,1175.63
2019-05-18T05:54:32.828Z,1186.88
2019-05-18T05:55:32.871Z,1209.38
2019-05-18T05:56:32.913Z,1243.13
2019-05-18T05:57:32.953Z,1158.75
2019-05-18T05:58:32.996Z,1136.25
2019-05-18T05:59:33.038Z,1130.63
2019-05-18T06:00:33.081Z,1203.75
2019-05-18T06:01:33.128Z,1243.13
2019-05-18T06:02:33.165Z,1243.13
2019-05-18T06:03:33.205Z,1226.25
2019-05-18T06:04:33.252Z,1096.88
2019-05-18T06:05:33.290Z,1338.75
2019-05-18T06:06:33.332Z,1361.25
2019-05-18T06:07:33.390Z,1361.25
2019-05-18T06:08:33.417Z,804.38
2019-05-18T06:09:33.462Z,798.75
2019-05-18T06:10:33.503Z,1226.25
2019-05-18T06:11:33.558Z,860.63
2019-05-18T06:12:33.586Z,928.13
2019-05-18T06:13:33.640Z,1091.25
2019-05-18T06:14:33.671Z,1046.25
2019-05-18T06:15:33.716Z,1012.50
2019-05-18T06:16:33.760Z,1057.50
2019-05-18T06:17:33.797Z,990.00
2019-05-18T06:18:33.843Z,1068.75
2019-05-18T06:19:33.883Z,1074.38
2019-05-18T06:20:33.924Z,883.13
2019-05-18T06:21:33.966Z,1023.75
2019-05-18T06:22:34.007Z,1400.63
2019-05-18T06:23:34.049Z,1451.25
2019-05-18T06:24:34.089Z,1395.00
2019-05-18T06:25:34.556Z,1490.63
2019-05-18T06:26:34.178Z,1445.63
2019-05-18T06:27:34.220Z,1468.13
2019-05-18T06:28:34.298Z,1530.00
2019-05-18T06:29:34.304Z,1546.88
2019-05-18T06:30:34.346Z,1473.75
2019-05-18T06:31:34.385Z,1434.38
2019-05-18T06:32:34.431Z,1535.63
2019-05-18T06:33:34.470Z,1631.25
2019-05-18T06:34:34.520Z,1614.38
2019-05-18T06:35:34.560Z,1501.88
2019-05-18T06:36:34.599Z,1445.63
2019-05-18T06:37:34.649Z,1546.88
2019-05-18T06:38:34.685Z,1665.00
2019-05-18T06:39:34.729Z,1620.00
2019-05-18T06:40:34.772Z,1575.00
2019-05-18T06:41:34.814Z,1490.63
2019-05-18T06:42:34.864Z,1558.13
2019-05-18T06:43:34.901Z,1642.50
2019-05-18T06:44:34.945Z,1670.63
2019-05-18T06:45:34.987Z,1659.38
2019-05-18T06:46:35.032Z,1676.25
2019-05-18T06:47:35.078Z,1670.63
2019-05-18T06:48:35.118Z,1338.75
2019-05-18T06:49:35.364Z,1006.88
2019-05-18T06:50:35.216Z,1130.63
2019-05-18T06:51:35.256Z,1248.75
2019-05-18T06:52:35.299Z,1006.88
2019-05-18T06:53:35.339Z,1192.50
2019-05-18T06:54:35.383Z,1237.50
2019-05-18T06:55:35.432Z,1125.00
2019-05-18T06:56:35.478Z,1085.63
2019-05-18T06:57:35.518Z,1231.88
2019-05-18T06:58:35.570Z,1125.00
2019-05-18T06:59:35.604Z,1479.38
2019-05-18T07:00:35.649Z,1535.63
2019-05-18T07:01:35.694Z,1681.88
2019-05-18T07:02:35.735Z,1822.50
2019-05-18T07:03:35.779Z,1884.38
2019-05-18T07:04:35.832Z,1766.25
2019-05-18T07:05:35.866Z,1361.25
2019-05-18T07:06:35.915Z,1636.88
2019-05-18T07:07:35.960Z,1282.50
2019-05-18T07:08:35.998Z,1361.25
2019-05-18T07:09:36.042Z,1783.13
2019-05-18T07:10:36.090Z,1766.25
2019-05-18T07:11:36.135Z,1760.63
2019-05-18T07:12:36.177Z,1850.63
2019-05-18T07:13:36.237Z,1783.13
2019-05-18T07:14:36.268Z,1783.13
2019-05-18T07:15:36.312Z,1811.25
2019-05-18T07:16:36.357Z,1811.25
2019-05-18T07:17:36.403Z,1845.00
2019-05-18T07:18:36.445Z,1698.75
2019-05-18T07:19:36.491Z,1687.50
2019-05-18T07:20:36.539Z,1816.88
2019-05-18T07:21:36.585Z,1788.75
2019-05-18T07:22:36.627Z,1710.00
2019-05-18T07:23:36.679Z,1710.00
2019-05-18T07:24:36.720Z,1766.25
2019-05-18T07:25:36.765Z,1783.13
2019-05-18T07:26:36.814Z,1839.38
2019-05-18T07:27:36.856Z,1282.50
2019-05-18T07:28:36.905Z,1153.13
2019-05-18T07:29:36.950Z,978.75
2019-05-18T07:30:36.994Z,714.38
2019-05-18T07:31:37.038Z,686.25
2019-05-18T07:32:37.089Z,708.75
2019-05-18T07:33:37.129Z,1186.88
2019-05-18T07:34:37.175Z,1125.00
2019-05-18T07:35:37.219Z,781.88
2019-05-18T07:36:37.264Z,776.25
2019-05-18T07:37:37.308Z,748.13
2019-05-18T07:38:37.349Z,1406.25
2019-05-18T07:39:37.393Z,1305.00
2019-05-18T07:40:37.438Z,1355.63
2019-05-18T07:41:46.285Z,1333.13
2019-05-18T07:42:37.521Z,1839.38
2019-05-18T07:43:37.569Z,2295.00
2019-05-18T07:44:37.610Z,2227.50
2019-05-18T07:45:37.649Z,2300.63
2019-05-18T07:46:37.695Z,2160.00
2019-05-18T07:47:37.741Z,2216.25
2019-05-18T07:48:37.780Z,2475.00
2019-05-18T07:49:37.820Z,2565.00
2019-05-18T07:50:37.865Z,2452.50
2019-05-18T07:51:37.913Z,2345.63
2019-05-18T07:52:37.954Z,2221.88
2019-05-18T07:53:37.997Z,2233.13
2019-05-18T07:54:38.041Z,2317.50
2019-05-18T07:55:38.094Z,2317.50
2019-05-18T07:56:38.144Z,1991.25
2019-05-18T07:57:38.178Z,2160.00
2019-05-18T07:58:38.222Z,2103.75
2019-05-18T07:59:38.268Z,2238.75
2019-05-18T08:00:38.313Z,2469.38
2019-05-18T08:01:38.356Z,2300.63
2019-05-18T08:02:38.406Z,2171.25
2019-05-18T08:03:38.452Z,2345.63
2019-05-18T08:04:39.838Z,2452.50
2019-05-18T08:05:38.542Z,2311.88
2019-05-18T08:06:38.590Z,2379.38
2019-05-18T08:07:38.635Z,2491.88
2019-05-18T08:08:38.681Z,2362.50
2019-05-18T08:09:38.729Z,2143.13
2019-05-18T08:10:38.775Z,2131.88
2019-05-18T08:11:38.821Z,2047.50
2019-05-18T08:12:38.879Z,1940.63
2019-05-18T08:13:38.916Z,1923.75
2019-05-18T08:14:38.964Z,1906.88
2019-05-18T08:15:39.011Z,1861.88
2019-05-18T08:16:39.059Z,1867.50
2019-05-18T08:17:39.105Z,1923.75
2019-05-18T08:18:39.153Z,1867.50
2019-05-18T08:19:39.202Z,1963.13
2019-05-18T08:20:39.249Z,1974.38
2019-05-18T08:21:52.305Z,2025.00
2019-05-18T08:22:39.345Z,1929.38
2019-05-18T08:23:39.394Z,1940.63
2019-05-18T08:24:39.439Z,1963.13
2019-05-18T08:25:39.485Z,1839.38
2019-05-18T08:26:39.537Z,1833.75
2019-05-18T08:27:39.582Z,1873.13
2019-05-18T08:28:39.632Z,1828.13
2019-05-18T08:29:39.682Z,1816.88
2019-05-18T08:30:39.725Z,1783.13
2019-05-18T08:31:39.773Z,1777.50
2019-05-18T08:32:39.826Z,1867.50
2019-05-18T08:33:39.871Z,1878.75
2019-05-18T08:34:39.920Z,1895.63
2019-05-18T08:35:39.969Z,2036.25
2019-05-18T08:36:40.017Z,1906.88
2019-05-18T08:37:40.060Z,1676.25
2019-05-18T08:38:40.110Z,1591.88
2019-05-18T08:39:40.158Z,1850.63
2019-05-18T08:40:40.208Z,1895.63
2019-05-18T08:41:40.253Z,1895.63
2019-05-18T08:42:40.301Z,1963.13
2019-05-18T08:43:40.350Z,2030.63
2019-05-18T08:44:40.404Z,1935.00
2019-05-18T08:45:40.452Z,1794.38
2019-05-18T08:46:40.495Z,1631.25
2019-05-18T08:47:40.548Z,1518.75
2019-05-18T08:48:40.594Z,1417.50
2019-05-18T08:49:40.641Z,1355.63
2019-05-18T08:50:40.696Z,1361.25
2019-05-18T08:51:40.739Z,1355.63
2019-05-18T08:52:40.787Z,1383.75
2019-05-18T08:53:40.840Z,1395.00
2019-05-18T08:54:40.888Z,1293.75
2019-05-18T08:55:40.937Z,1361.25
2019-05-18T08:56:40.988Z,1316.25
2019-05-18T08:57:41.034Z,1293.75
2019-05-18T08:58:41.085Z,1350.00
2019-05-18T08:59:41.133Z,1440.00
2019-05-18T09:00:41.183Z,1462.50
2019-05-18T09:01:41.230Z,1501.88
2019-05-18T09:02:41.277Z,1636.88
2019-05-18T09:03:41.326Z,1603.13
2019-05-18T09:04:41.376Z,1631.25
2019-05-18T09:05:41.422Z,1698.75
2019-05-18T09:06:41.472Z,1822.50
2019-05-18T09:07:41.521Z,1839.38
2019-05-18T09:08:41.572Z,1788.75
2019-05-18T09:09:41.622Z,1811.25
2019-05-18T09:10:41.670Z,1783.13
2019-05-18T09:11:41.718Z,1828.13
2019-05-18T09:12:41.763Z,1811.25
2019-05-18T09:13:41.813Z,1901.25
2019-05-18T09:14:41.861Z,1946.25
2019-05-18T09:15:41.908Z,2143.13
2019-05-18T09:16:41.960Z,2205.00
2019-05-18T09:17:42.015Z,2188.13
2019-05-18T09:18:42.055Z,2131.88
2019-05-18T09:19:42.108Z,2041.88
2019-05-18T09:20:42.158Z,2053.13
2019-05-18T09:21:42.200Z,2143.13
2019-05-18T09:22:42.253Z,2019.38
2019-05-18T09:23:42.303Z,2081.25
2019-05-18T09:24:42.351Z,2030.63
2019-05-18T09:25:42.398Z,1957.50
2019-05-18T09:26:42.449Z,2081.25
2019-05-18T09:27:42.502Z,2120.63
2019-05-18T09:28:42.551Z,2109.38
2019-05-18T09:29:42.600Z,2092.50
2019-05-18T09:30:42.649Z,2165.63
2019-05-18T09:31:42.699Z,2126.25
2019-05-18T09:32:42.747Z,2255.63
2019-05-18T09:33:42.800Z,2328.75
2019-05-18T09:34:42.847Z,2109.38
2019-05-18T09:35:42.903Z,1985.63
2019-05-18T09:36:42.949Z,1839.38
2019-05-18T09:37:43.000Z,1957.50
2019-05-18T09:38:43.057Z,1974.38
2019-05-18T09:39:43.105Z,1743.75
2019-05-18T09:40:43.151Z,1271.25
2019-05-18T09:41:43.204Z,1085.63
2019-05-18T09:42:43.253Z,1001.25
2019-05-18T09:43:43.305Z,978.75
2019-05-18T09:44:43.351Z,995.63
2019-05-18T09:45:43.404Z,1040.63
2019-05-18T09:46:43.453Z,1130.63
2019-05-18T09:47:43.509Z,1203.75
2019-05-18T09:48:43.547Z,1344.38
2019-05-18T09:49:43.602Z,1119.38
2019-05-18T09:50:43.642Z,1170.00
2019-05-18T09:51:43.695Z,1147.50
2019-05-18T09:52:45.763Z,1147.50
2019-05-18T09:53:51.271Z,1192.50
2019-05-18T09:54:43.835Z,1125.00
2019-05-18T09:55:43.885Z,1051.88
2019-05-18T09:56:43.930Z,995.63
2019-05-18T09:57:43.977Z,961.88
2019-05-18T09:58:44.023Z,928.13
2019-05-18T09:59:44.067Z,916.88
2019-05-18T10:00:44.115Z,967.50
2019-05-18T10:01:44.160Z,1119.38
2019-05-18T10:02:44.206Z,1102.50
2019-05-18T10:03:44.259Z,1102.50
2019-05-18T10:04:44.299Z,1681.88
2019-05-18T10:05:44.345Z,1445.63
2019-05-18T10:06:44.418Z,1676.25
2019-05-18T10:07:44.438Z,1186.88
2019-05-18T10:08:44.490Z,1518.75
2019-05-18T10:09:44.530Z,1451.25
2019-05-18T10:10:44.576Z,1524.38
2019-05-18T10:11:44.620Z,1389.38
2019-05-18T10:12:44.666Z,1316.25
2019-05-18T10:13:44.728Z,1333.13
2019-05-18T10:14:44.761Z,1299.38
2019-05-18T10:15:44.804Z,1456.88
2019-05-18T10:16:44.851Z,1575.00
2019-05-18T10:17:44.895Z,1597.50
2019-05-18T10:18:44.953Z,1704.38
2019-05-18T10:19:44.988Z,1861.88
2019-05-18T10:20:45.041Z,1687.50
2019-05-18T10:21:45.088Z,2086.88
2019-05-18T10:22:55.065Z,2098.13
2019-05-18T10:23:45.181Z,2103.75
2019-05-18T10:24:45.230Z,1946.25
2019-05-18T10:25:45.275Z,1816.88
2019-05-18T10:26:45.381Z,1642.50
2019-05-18T10:27:45.372Z,1681.88
2019-05-18T10:28:45.420Z,1496.25
2019-05-18T10:29:46.762Z,1428.75
2019-05-18T10:30:45.514Z,1535.63
2019-05-18T10:31:45.559Z,2013.75
2019-05-18T10:32:45.610Z,2002.50
2019-05-18T10:33:45.656Z,2368.13
2019-05-18T10:34:45.712Z,2581.88
2019-05-18T10:35:45.787Z,2756.25
2019-05-18T10:36:45.801Z,2767.50
2019-05-18T10:37:45.851Z,2795.63
2019-05-18T10:38:45.903Z,2728.13
2019-05-18T10:39:45.954Z,2694.38
2019-05-18T10:40:45.999Z,2643.75
2019-05-18T10:41:46.050Z,2739.38
2019-05-18T10:42:46.100Z,2756.25
2019-05-18T10:43:46.955Z,2700.00
2019-05-18T10:44:46.206Z,2716.88
2019-05-18T10:45:46.259Z,2553.75
2019-05-18T10:46:46.307Z,2356.88
2019-05-18T10:47:46.364Z,2446.88
2019-05-18T10:48:46.410Z,1800.00
2019-05-18T10:49:46.476Z,1670.63
2019-05-18T10:50:46.527Z,2486.25
2019-05-18T10:51:46.564Z,2255.63
2019-05-18T10:52:46.617Z,2413.13
2019-05-18T10:53:46.670Z,2385.00
2019-05-18T10:54:46.727Z,2413.13
2019-05-18T10:55:47.132Z,2385.00
2019-05-18T10:56:46.833Z,2317.50
2019-05-18T10:57:46.875Z,2328.75
2019-05-18T10:58:46.927Z,2334.38
2019-05-18T10:59:46.980Z,2300.63
2019-05-18T11:00:47.035Z,2300.63
2019-05-18T11:01:47.086Z,2385.00
2019-05-18T11:02:47.137Z,2373.75
2019-05-18T11:03:47.190Z,2362.50
2019-05-18T11:04:47.242Z,2351.25
2019-05-18T11:05:47.288Z,2351.25
2019-05-18T11:06:47.341Z,2311.88
2019-05-18T11:07:47.394Z,2368.13
2019-05-18T11:08:47.443Z,2430.00
2019-05-18T11:09:47.518Z,2396.25
2019-05-18T11:10:47.547Z,2373.75
2019-05-18T11:11:47.599Z,2390.63
2019-05-18T11:12:47.650Z,2407.50
2019-05-18T11:13:47.699Z,2385.00
2019-05-18T11:14:47.750Z,2390.63
2019-05-18T11:15:47.802Z,2323.13
2019-05-18T11:16:47.852Z,2154.38
2019-05-18T11:17:47.904Z,1940.63
2019-05-18T11:18:47.957Z,1940.63
2019-05-18T11:19:48.006Z,1884.38
2019-05-18T11:20:48.060Z,1760.63
2019-05-18T11:21:48.112Z,1828.13
2019-05-18T11:22:48.163Z,1828.13
2019-05-18T11:23:48.264Z,1884.38
2019-05-18T11:24:48.266Z,1755.00
2019-05-18T11:25:48.311Z,1552.50
2019-05-18T11:26:48.363Z,1406.25
2019-05-18T11:27:48.413Z,1260.00
2019-05-18T11:28:48.467Z,1693.13
2019-05-18T11:29:48.517Z,1805.63
2019-05-18T11:30:48.570Z,1918.13
2019-05-18T11:31:48.614Z,1861.88
2019-05-18T11:32:48.663Z,1878.75
2019-05-18T11:33:48.710Z,1777.50
2019-05-18T11:34:48.768Z,1749.38
2019-05-18T11:35:48.812Z,1794.38
2019-05-18T11:36:48.863Z,1968.75
2019-05-18T11:39:34.558Z,2233.13
2019-05-18T11:40:34.602Z,2193.75
2019-05-18T11:41:34.657Z,2053.13
2019-05-18T11:42:34.699Z,2390.63
2019-05-18T11:43:34.766Z,2261.25
2019-05-18T11:44:36.025Z,2058.75
2019-05-18T11:45:34.866Z,2165.63
2019-05-18T11:46:34.906Z,2401.88
2019-05-18T11:47:34.951Z,2317.50
2019-05-18T11:48:35.015Z,2373.75
2019-05-18T11:49:35.050Z,2328.75
2019-05-18T11:50:35.100Z,2317.50
2019-05-18T11:51:35.154Z,2413.13
2019-05-18T11:52:35.200Z,2328.75
2019-05-18T11:53:35.262Z,2216.25
2019-05-18T11:54:35.310Z,2250.00
2019-05-18T11:55:35.362Z,2306.25
2019-05-18T11:56:35.409Z,2137.50
2019-05-18T11:57:35.467Z,2137.50
2019-05-18T11:58:35.511Z,2345.63
2019-05-18T11:59:35.559Z,2306.25
2019-05-18T12:00:35.619Z,2323.13
2019-05-18T12:01:35.664Z,2266.88
2019-05-18T12:02:35.713Z,2199.38
2019-05-18T12:03:35.773Z,2261.25
2019-05-18T12:04:35.831Z,2272.50
2019-05-18T12:05:35.883Z,2188.13
2019-05-18T12:06:35.926Z,2283.75
2019-05-18T12:07:35.983Z,2351.25
2019-05-18T12:08:36.035Z,2255.63
2019-05-18T12:09:36.095Z,2233.13
2019-05-18T12:10:36.134Z,2244.38
2019-05-18T12:11:36.187Z,2233.13
2019-05-18T12:12:36.239Z,2126.25
2019-05-18T12:13:36.291Z,2137.50
2019-05-18T12:14:55.558Z,2182.50
2019-05-18T12:16:09.631Z,2081.25
2019-05-18T12:16:36.454Z,1985.63
2019-05-18T12:17:36.502Z,2064.38
2019-05-18T12:18:36.563Z,2137.50
2019-05-18T12:19:36.609Z,2064.38
2019-05-18T12:20:36.655Z,1968.75
2019-05-18T12:21:36.720Z,2092.50
2019-05-18T12:22:36.803Z,2008.13
2019-05-18T12:23:36.812Z,1867.50
2019-05-18T12:24:36.864Z,1996.88
2019-05-18T12:25:36.920Z,1861.88
2019-05-18T12:26:36.975Z,1890.00